x

Kirkwall (03017) Weather Station

11:00 - Wed 22nd Feb 2017 All times are GMT.

  • Wind
    37mph, 62mph gusts
  • Aire Temp 40°f
  • Sea Pressure 985mb
  • Kirkwall
  • Kirkwall

More Historic Weather Station data

Upgrade to MSW Pro to gain access to the past 30 days of data for over 8000 Wavebouys and Weather Stations around the globe.

Join Pro

Comparision Forecast

View Surf forecast
   
mié 02/22 11:00 37 62 mph 985mb 40f
10:00 47 72 mph 983mb 44f
9:00 41 64 mph 983mb 42f
8:00 45 63 mph 982mb 43f
7:00 41 63 mph 982mb 43f
6:00 38 66 mph 982mb 42f
5:00 41 67 mph 982mb 42f
4:00 39 60 mph 982mb 42f
3:00 39 69 mph 982mb 41f
2:00 37 66 mph 983mb 40f
1:00 38 60 mph 984mb 41f
12:00 38 53 mph 984mb 43f
mar 02/21 11:00 32 47 mph 985mb 41f
10:00 32 46 mph 985mb 42f
9:00 21 41 mph 985mb 43f
8:00 21 39 mph 985mb 43f
7:00 24 62 mph 986mb 44f
6:00 18 31 mph 985mb 46f
5:00 19 29 mph 987mb 46f
4:00 19 37 mph 989mb 46f
3:00 24 36 mph 991mb 44f
2:00 23 34 mph 993mb 44f
1:00 19 29 mph 995mb 43f
12:00 19
mph
998mb 43f
11:00 18
mph
999mb 43f
10:00 16
mph
1001mb 43f
9:00 14
mph
1002mb 44f
8:00 14
mph
1003mb 42f
7:00 8
mph
1003mb 41f
6:00 11 31 mph 1004mb 41f
5:00 15 31 mph 1004mb 42f
4:00 19 34 mph 1004mb 41f
3:00 14 30 mph 1003mb 40f
2:00 21 39 mph 1003mb 42f
1:00 26 36 mph 1003mb 42f
12:00 23 36 mph 1003mb 43f
lun 02/20 11:00 16 38 mph 1002mb 42f
10:00 26 38 mph 1002mb 43f
9:00 28 49 mph 1002mb 43f
8:00 26 44 mph 1002mb 44f
7:00 23 41 mph 1002mb 42f
6:00 30 46 mph 1002mb 43f
5:00 28 44 mph 1001mb 45f
4:00 32 46 mph 1001mb 46f
3:00 29 48 mph 1000mb 46f
2:00 28 44 mph 1000mb 48f
1:00 31 45 mph 1000mb 49f
12:00 32 46 mph 1000mb 49f
11:00 23 37 mph 1000mb 48f
8:00 30 48 mph 996mb 49f
7:00 34 47 mph 997mb 50f
6:00 31 45 mph 998mb 49f
5:00 25 37 mph 999mb 48f
4:00 23 36 mph 1000mb 47f
3:00 24 34 mph 1001mb 47f
2:00 21 32 mph 1003mb 47f
1:00 21 36 mph 1003mb 47f
12:00 22 36 mph 1003mb 48f
dom 02/19 11:00 23 37 mph 1003mb 49f
10:00 28 44 mph 1003mb 49f
9:00 26 43 mph 1003mb 50f
8:00 30 40 mph 1003mb 50f
7:00 29 39 mph 1004mb 50f
6:00 19
mph
1005mb 48f
5:00 19
mph
1005mb 49f
4:00 17
mph
1006mb 48f
3:00 19 37 mph 1007mb 48f
2:00 23 36 mph 1008mb 49f
1:00 21 31 mph 1009mb 48f
12:00 17 31 mph 1010mb 48f
11:00 17 29 mph 1011mb 46f
10:00 18 30 mph 1010mb 46f
9:00 18
mph
1011mb 45f
8:00 14
mph
1010mb 45f